Terminal Aerodrome Forecast
Issued by NWS Charleston, WV

Current Version | Previous Version | Graphics & Text | Print | Product List | Glossary On
Versions: 1 2 3 4 5 6 7 8 9 10 11 12 13 14 15 16 17 18 19 20 21 22
000
FTUS41 KRLX 030500 RRA
TAFEKN
TAF
KEKN 030543Z 0306/0406 00000KT P6SM OVC090
     FM030900 14005KT P6SM OVC120
     FM031500 16010G15KT P6SM -RA OVC070
     FM040100 20009KT 5SM -RA OVC030=

USA.gov is the U.S. government's official web portal to all federal, state and local government web resources and services.